sensor_id;sensor_type;location;lat;lon;timestamp;temperature;humidity
66873;HTU21D;53781;51.090;5.884;2022-11-11T00:00:32;12.02;71.26
66873;HTU21D;53781;51.090;5.884;2022-11-11T00:01:13;11.99;71.27
66873;HTU21D;53781;51.090;5.884;2022-11-11T00:01:46;11.98;71.28
66873;HTU21D;53781;51.090;5.884;2022-11-11T00:02:19;11.96;71.26
66873;HTU21D;53781;51.090;5.884;2022-11-11T00:02:57;11.96;71.25
66873;HTU21D;53781;51.090;5.884;2022-11-11T00:03:30;11.93;71.22
66873;HTU21D;53781;51.090;5.884;2022-11-11T00:04:03;11.93;71.21
66873;HTU21D;53781;51.090;5.884;2022-11-11T00:04:37;11.91;71.25
66873;HTU21D;53781;51.090;5.884;2022-11-11T00:05:10;11.90;71.26
66873;HTU21D;53781;51.090;5.884;2022-11-11T00:05:46;11.88;71.26
66873;HTU21D;53781;51.090;5.884;2022-11-11T00:06:19;11.88;71.27
66873;HTU21D;53781;51.090;5.884;2022-11-11T00:06:53;11.88;71.28
66873;HTU21D;53781;51.090;5.884;2022-11-11T00:07:26;11.85;71.28
66873;HTU21D;53781;51.090;5.884;2022-11-11T00:08:00;11.84;71.38
66873;HTU21D;53781;51.090;5.884;2022-11-11T00:08:33;11.85;71.49
66873;HTU21D;53781;51.090;5.884;2022-11-11T00:09:08;11.84;71.55
66873;HTU21D;53781;51.090;5.884;2022-11-11T00:09:42;11.84;71.72
66873;HTU21D;53781;51.090;5.884;2022-11-11T00:10:15;11.85;71.74
66873;HTU21D;53781;51.090;5.884;2022-11-11T00:10:48;11.84;71.78
66873;HTU21D;53781;51.090;5.884;2022-11-11T00:11:22;11.83;71.80
66873;HTU21D;53781;51.090;5.884;2022-11-11T00:11:55;11.84;71.94
66873;HTU21D;53781;51.090;5.884;2022-11-11T00:12:29;11.86;71.95
66873;HTU21D;53781;51.090;5.884;2022-11-11T00:13:03;11.84;72.03
66873;HTU21D;53781;51.090;5.884;2022-11-11T00:13:41;11.85;72.19
66873;HTU21D;53781;51.090;5.884;2022-11-11T00:14:14;11.85;72.29
66873;HTU21D;53781;51.090;5.884;2022-11-11T00:14:47;11.87;72.26
66873;HTU21D;53781;51.090;5.884;2022-11-11T00:15:21;11.88;72.32
66873;HTU21D;53781;51.090;5.884;2022-11-11T00:15:54;11.86;72.31
66873;HTU21D;53781;51.090;5.884;2022-11-11T00:16:28;11.87;72.32
66873;HTU21D;53781;51.090;5.884;2022-11-11T00:17:21;11.87;72.40
66873;HTU21D;53781;51.090;5.884;2022-11-11T00:18:12;11.88;72.38
66873;HTU21D;53781;51.090;5.884;2022-11-11T00:19:05;11.88;72.33
66873;HTU21D;53781;51.090;5.884;2022-11-11T00:19:57;11.87;72.21
66873;HTU21D;53781;51.090;5.884;2022-11-11T00:20:49;11.87;72.23
66873;HTU21D;53781;51.090;5.884;2022-11-11T00:21:49;11.88;72.30
66873;HTU21D;53781;51.090;5.884;2022-11-11T00:22:22;11.86;72.38
66873;HTU21D;53781;51.090;5.884;2022-11-11T00:23:20;11.87;72.45
66873;HTU21D;53781;51.090;5.884;2022-11-11T00:24:28;11.87;72.55
66873;HTU21D;53781;51.090;5.884;2022-11-11T00:25:20;11.88;72.60
66873;HTU21D;53781;51.090;5.884;2022-11-11T00:25:53;11.87;72.63
66873;HTU21D;53781;51.090;5.884;2022-11-11T00:26:27;11.89;72.60
66873;HTU21D;53781;51.090;5.884;2022-11-11T00:27:02;11.88;72.56
66873;HTU21D;53781;51.090;5.884;2022-11-11T00:27:38;11.89;72.58
66873;HTU21D;53781;51.090;5.884;2022-11-11T00:28:12;11.90;72.55
66873;HTU21D;53781;51.090;5.884;2022-11-11T00:28:45;11.90;72.48
66873;HTU21D;53781;51.090;5.884;2022-11-11T00:29:18;11.93;72.50
66873;HTU21D;53781;51.090;5.884;2022-11-11T00:29:52;11.93;72.38
66873;HTU21D;53781;51.090;5.884;2022-11-11T00:30:26;11.91;72.38
66873;HTU21D;53781;51.090;5.884;2022-11-11T00:31:07;11.92;72.43
66873;HTU21D;53781;51.090;5.884;2022-11-11T00:31:41;11.94;72.54
66873;HTU21D;53781;51.090;5.884;2022-11-11T00:32:33;11.92;72.53
66873;HTU21D;53781;51.090;5.884;2022-11-11T00:33:06;11.92;72.57
66873;HTU21D;53781;51.090;5.884;2022-11-11T00:33:40;11.92;72.48
66873;HTU21D;53781;51.090;5.884;2022-11-11T00:34:13;11.92;72.43
66873;HTU21D;53781;51.090;5.884;2022-11-11T00:34:47;11.93;72.45
66873;HTU21D;53781;51.090;5.884;2022-11-11T00:35:39;11.93;72.31
66873;HTU21D;53781;51.090;5.884;2022-11-11T00:36:27;11.91;72.33
66873;HTU21D;53781;51.090;5.884;2022-11-11T00:37:00;11.90;72.35
66873;HTU21D;53781;51.090;5.884;2022-11-11T00:37:34;11.89;72.45
66873;HTU21D;53781;51.090;5.884;2022-11-11T00:38:12;11.89;72.53
66873;HTU21D;53781;51.090;5.884;2022-11-11T00:39:05;11.90;72.62
66873;HTU21D;53781;51.090;5.884;2022-11-11T00:39:38;11.88;72.62
66873;HTU21D;53781;51.090;5.884;2022-11-11T00:40:12;11.87;72.58
66873;HTU21D;53781;51.090;5.884;2022-11-11T00:40:45;11.87;72.56
66873;HTU21D;53781;51.090;5.884;2022-11-11T00:41:21;11.88;72.48
66873;HTU21D;53781;51.090;5.884;2022-11-11T00:41:55;11.88;72.48
66873;HTU21D;53781;51.090;5.884;2022-11-11T00:42:28;11.89;72.45
66873;HTU21D;53781;51.090;5.884;2022-11-11T00:43:02;11.89;72.45
66873;HTU21D;53781;51.090;5.884;2022-11-11T00:43:35;11.88;72.40
66873;HTU21D;53781;51.090;5.884;2022-11-11T00:44:08;11.89;72.31
66873;HTU21D;53781;51.090;5.884;2022-11-11T00:44:42;11.87;72.36
66873;HTU21D;53781;51.090;5.884;2022-11-11T00:45:15;11.87;72.31
66873;HTU21D;53781;51.090;5.884;2022-11-11T00:45:49;11.87;72.39
66873;HTU21D;53781;51.090;5.884;2022-11-11T00:46:22;11.88;72.34
66873;HTU21D;53781;51.090;5.884;2022-11-11T00:47:14;11.88;72.33
66873;HTU21D;53781;51.090;5.884;2022-11-11T00:48:08;11.90;72.26
66873;HTU21D;53781;51.090;5.884;2022-11-11T00:49:00;11.87;72.05
66873;HTU21D;53781;51.090;5.884;2022-11-11T00:49:53;11.86;72.01
66873;HTU21D;53781;51.090;5.884;2022-11-11T00:50:45;11.85;71.84
66873;HTU21D;53781;51.090;5.884;2022-11-11T00:51:31;11.86;71.75
66873;HTU21D;53781;51.090;5.884;2022-11-11T00:52:04;11.84;71.73
66873;HTU21D;53781;51.090;5.884;2022-11-11T00:52:37;11.85;71.75
66873;HTU21D;53781;51.090;5.884;2022-11-11T00:53:17;11.84;71.82
66873;HTU21D;53781;51.090;5.884;2022-11-11T00:53:51;11.84;71.81
66873;HTU21D;53781;51.090;5.884;2022-11-11T00:54:24;11.84;71.82
66873;HTU21D;53781;51.090;5.884;2022-11-11T00:54:57;11.82;71.82
66873;HTU21D;53781;51.090;5.884;2022-11-11T00:55:31;11.82;71.80
66873;HTU21D;53781;51.090;5.884;2022-11-11T00:56:04;11.82;71.88
66873;HTU21D;53781;51.090;5.884;2022-11-11T00:56:38;11.81;71.81
66873;HTU21D;53781;51.090;5.884;2022-11-11T00:57:12;11.81;71.71
66873;HTU21D;53781;51.090;5.884;2022-11-11T00:57:45;11.78;71.57
66873;HTU21D;53781;51.090;5.884;2022-11-11T00:58:19;11.75;71.58
66873;HTU21D;53781;51.090;5.884;2022-11-11T00:58:52;11.75;71.66
66873;HTU21D;53781;51.090;5.884;2022-11-11T00:59:25;11.73;71.71
66873;HTU21D;53781;51.090;5.884;2022-11-11T00:59:59;11.72;71.66
66873;HTU21D;53781;51.090;5.884;2022-11-11T01:00:32;11.70;71.56
66873;HTU21D;53781;51.090;5.884;2022-11-11T01:01:05;11.70;71.65
66873;HTU21D;53781;51.090;5.884;2022-11-11T01:01:38;11.70;71.69
66873;HTU21D;53781;51.090;5.884;2022-11-11T01:02:12;11.71;71.76
66873;HTU21D;53781;51.090;5.884;2022-11-11T01:02:45;11.70;71.70
66873;HTU21D;53781;51.090;5.884;2022-11-11T01:03:20;11.69;71.84
66873;HTU21D;53781;51.090;5.884;2022-11-11T01:03:53;11.67;71.86
66873;HTU21D;53781;51.090;5.884;2022-11-11T01:04:26;11.68;71.91
66873;HTU21D;53781;51.090;5.884;2022-11-11T01:04:59;11.69;71.85
66873;HTU21D;53781;51.090;5.884;2022-11-11T01:05:32;11.69;71.87
66873;HTU21D;53781;51.090;5.884;2022-11-11T01:06:06;11.68;71.93
66873;HTU21D;53781;51.090;5.884;2022-11-11T01:06:39;11.67;71.91
66873;HTU21D;53781;51.090;5.884;2022-11-11T01:07:13;11.66;71.95
66873;HTU21D;53781;51.090;5.884;2022-11-11T01:07:48;11.64;72.01
66873;HTU21D;53781;51.090;5.884;2022-11-11T01:08:24;11.63;72.03
66873;HTU21D;53781;51.090;5.884;2022-11-11T01:09:03;11.62;72.05
66873;HTU21D;53781;51.090;5.884;2022-11-11T01:09:37;11.60;72.05
66873;HTU21D;53781;51.090;5.884;2022-11-11T01:10:11;11.61;72.06
66873;HTU21D;53781;51.090;5.884;2022-11-11T01:10:44;11.58;72.13
66873;HTU21D;53781;51.090;5.884;2022-11-11T01:11:21;11.60;72.28
66873;HTU21D;53781;51.090;5.884;2022-11-11T01:11:55;11.59;72.32
66873;HTU21D;53781;51.090;5.884;2022-11-11T01:12:28;11.59;72.38
66873;HTU21D;53781;51.090;5.884;2022-11-11T01:13:01;11.58;72.43
66873;HTU21D;53781;51.090;5.884;2022-11-11T01:13:44;11.58;72.48
66873;HTU21D;53781;51.090;5.884;2022-11-11T01:14:17;11.59;72.50
66873;HTU21D;53781;51.090;5.884;2022-11-11T01:14:51;11.59;72.52
66873;HTU21D;53781;51.090;5.884;2022-11-11T01:15:25;11.58;72.48
66873;HTU21D;53781;51.090;5.884;2022-11-11T01:16:05;11.59;72.57
66873;HTU21D;53781;51.090;5.884;2022-11-11T01:16:39;11.59;72.56
66873;HTU21D;53781;51.090;5.884;2022-11-11T01:17:12;11.58;72.64
66873;HTU21D;53781;51.090;5.884;2022-11-11T01:17:45;11.58;72.66
66873;HTU21D;53781;51.090;5.884;2022-11-11T01:18:21;11.59;72.73
66873;HTU21D;53781;51.090;5.884;2022-11-11T01:18:55;11.57;72.69
66873;HTU21D;53781;51.090;5.884;2022-11-11T01:19:28;11.60;72.72
66873;HTU21D;53781;51.090;5.884;2022-11-11T01:20:02;11.59;72.63
66873;HTU21D;53781;51.090;5.884;2022-11-11T01:20:36;11.58;72.66
66873;HTU21D;53781;51.090;5.884;2022-11-11T01:21:14;11.58;72.60
66873;HTU21D;53781;51.090;5.884;2022-11-11T01:21:48;11.58;72.74
66873;HTU21D;53781;51.090;5.884;2022-11-11T01:22:21;11.56;72.79
66873;HTU21D;53781;51.090;5.884;2022-11-11T01:22:54;11.57;72.76
66873;HTU21D;53781;51.090;5.884;2022-11-11T01:23:28;11.56;72.83
66873;HTU21D;53781;51.090;5.884;2022-11-11T01:24:02;11.56;72.90
66873;HTU21D;53781;51.090;5.884;2022-11-11T01:24:36;11.56;72.88
66873;HTU21D;53781;51.090;5.884;2022-11-11T01:25:10;11.55;72.93
66873;HTU21D;53781;51.090;5.884;2022-11-11T01:25:43;11.56;72.96
66873;HTU21D;53781;51.090;5.884;2022-11-11T01:26:23;11.58;72.96
66873;HTU21D;53781;51.090;5.884;2022-11-11T01:26:57;11.58;72.93
66873;HTU21D;53781;51.090;5.884;2022-11-11T01:27:33;11.54;72.95
66873;HTU21D;53781;51.090;5.884;2022-11-11T01:28:07;11.56;72.97
66873;HTU21D;53781;51.090;5.884;2022-11-11T01:28:41;11.56;72.92
66873;HTU21D;53781;51.090;5.884;2022-11-11T01:29:14;11.55;72.90
66873;HTU21D;53781;51.090;5.884;2022-11-11T01:29:47;11.56;72.84
66873;HTU21D;53781;51.090;5.884;2022-11-11T01:30:21;11.56;72.64
66873;HTU21D;53781;51.090;5.884;2022-11-11T01:31:00;11.55;72.46
66873;HTU21D;53781;51.090;5.884;2022-11-11T01:31:34;11.55;72.40
66873;HTU21D;53781;51.090;5.884;2022-11-11T01:32:07;11.54;72.42
66873;HTU21D;53781;51.090;5.884;2022-11-11T01:32:41;11.55;72.55
66873;HTU21D;53781;51.090;5.884;2022-11-11T01:33:14;11.55;72.60
66873;HTU21D;53781;51.090;5.884;2022-11-11T01:33:48;11.54;72.52
66873;HTU21D;53781;51.090;5.884;2022-11-11T01:34:21;11.54;72.57
66873;HTU21D;53781;51.090;5.884;2022-11-11T01:34:55;11.54;72.52
66873;HTU21D;53781;51.090;5.884;2022-11-11T01:35:28;11.53;72.48
66873;HTU21D;53781;51.090;5.884;2022-11-11T01:36:17;11.52;72.61
66873;HTU21D;53781;51.090;5.884;2022-11-11T01:36:50;11.53;72.51
66873;HTU21D;53781;51.090;5.884;2022-11-11T01:37:24;11.53;72.51
66873;HTU21D;53781;51.090;5.884;2022-11-11T01:37:58;11.52;72.54
66873;HTU21D;53781;51.090;5.884;2022-11-11T01:38:32;11.51;72.64
66873;HTU21D;53781;51.090;5.884;2022-11-11T01:39:07;11.52;72.59
66873;HTU21D;53781;51.090;5.884;2022-11-11T01:39:41;11.49;72.71
66873;HTU21D;53781;51.090;5.884;2022-11-11T01:40:14;11.51;72.70
66873;HTU21D;53781;51.090;5.884;2022-11-11T01:40:48;11.51;72.77
66873;HTU21D;53781;51.090;5.884;2022-11-11T01:41:25;11.49;72.80
66873;HTU21D;53781;51.090;5.884;2022-11-11T01:42:10;11.54;72.82
66873;HTU21D;53781;51.090;5.884;2022-11-11T01:43:23;11.51;72.76
66873;HTU21D;53781;51.090;5.884;2022-11-11T01:43:57;11.48;72.73
66873;HTU21D;53781;51.090;5.884;2022-11-11T01:44:43;11.48;72.83
66873;HTU21D;53781;51.090;5.884;2022-11-11T01:47:04;11.42;72.90
66873;HTU21D;53781;51.090;5.884;2022-11-11T01:47:38;11.41;72.86
66873;HTU21D;53781;51.090;5.884;2022-11-11T01:48:34;11.42;72.83
66873;HTU21D;53781;51.090;5.884;2022-11-11T01:49:50;11.41;72.87
66873;HTU21D;53781;51.090;5.884;2022-11-11T01:50:24;11.41;72.84
66873;HTU21D;53781;51.090;5.884;2022-11-11T01:50:58;11.39;72.76
66873;HTU21D;53781;51.090;5.884;2022-11-11T01:51:44;11.39;72.88
66873;HTU21D;53781;51.090;5.884;2022-11-11T01:52:59;11.41;72.79
66873;HTU21D;53781;51.090;5.884;2022-11-11T01:53:33;11.39;72.82
66873;HTU21D;53781;51.090;5.884;2022-11-11T01:54:24;11.38;72.84
66873;HTU21D;53781;51.090;5.884;2022-11-11T01:55:12;11.40;72.76
66873;HTU21D;53781;51.090;5.884;2022-11-11T01:55:58;11.39;72.70
66873;HTU21D;53781;51.090;5.884;2022-11-11T01:56:34;11.38;72.67
66873;HTU21D;53781;51.090;5.884;2022-11-11T01:57:30;11.38;72.70
66873;HTU21D;53781;51.090;5.884;2022-11-11T01:58:11;11.36;72.62
66873;HTU21D;53781;51.090;5.884;2022-11-11T01:58:46;11.37;72.54
66873;HTU21D;53781;51.090;5.884;2022-11-11T01:59:20;11.34;72.54
66873;HTU21D;53781;51.090;5.884;2022-11-11T01:59:59;11.33;72.61
66873;HTU21D;53781;51.090;5.884;2022-11-11T02:00:34;11.33;72.58
66873;HTU21D;53781;51.090;5.884;2022-11-11T02:01:07;11.32;72.55
66873;HTU21D;53781;51.090;5.884;2022-11-11T02:01:44;11.31;72.58
66873;HTU21D;53781;51.090;5.884;2022-11-11T02:02:35;11.32;72.58
66873;HTU21D;53781;51.090;5.884;2022-11-11T02:03:13;11.31;72.63
66873;HTU21D;53781;51.090;5.884;2022-11-11T02:03:48;11.31;72.61
66873;HTU21D;53781;51.090;5.884;2022-11-11T02:04:43;11.31;72.67
66873;HTU21D;53781;51.090;5.884;2022-11-11T02:05:36;11.31;72.64
66873;HTU21D;53781;51.090;5.884;2022-11-11T02:06:16;11.30;72.67
66873;HTU21D;53781;51.090;5.884;2022-11-11T02:06:57;11.32;72.70
66873;HTU21D;53781;51.090;5.884;2022-11-11T02:07:33;11.31;72.83
66873;HTU21D;53781;51.090;5.884;2022-11-11T02:08:28;11.28;72.93
66873;HTU21D;53781;51.090;5.884;2022-11-11T02:09:06;11.28;72.96
66873;HTU21D;53781;51.090;5.884;2022-11-11T02:09:46;11.29;72.94
66873;HTU21D;53781;51.090;5.884;2022-11-11T02:10:21;11.26;72.90
66873;HTU21D;53781;51.090;5.884;2022-11-11T02:11:05;11.28;72.80
66873;HTU21D;53781;51.090;5.884;2022-11-11T02:11:40;11.26;72.83
66873;HTU21D;53781;51.090;5.884;2022-11-11T02:12:34;11.26;72.86
66873;HTU21D;53781;51.090;5.884;2022-11-11T02:13:26;11.25;72.90
66873;HTU21D;53781;51.090;5.884;2022-11-11T02:14:18;11.25;72.86
66873;HTU21D;53781;51.090;5.884;2022-11-11T02:15:11;11.23;72.93
66873;HTU21D;53781;51.090;5.884;2022-11-11T02:15:45;11.23;73.09
66873;HTU21D;53781;51.090;5.884;2022-11-11T02:16:19;11.24;73.21
66873;HTU21D;53781;51.090;5.884;2022-11-11T02:16:52;11.27;73.20
66873;HTU21D;53781;51.090;5.884;2022-11-11T02:17:29;11.25;73.23
66873;HTU21D;53781;51.090;5.884;2022-11-11T02:18:04;11.26;73.22
66873;HTU21D;53781;51.090;5.884;2022-11-11T02:18:37;11.27;73.14
66873;HTU21D;53781;51.090;5.884;2022-11-11T02:19:12;11.25;73.03
66873;HTU21D;53781;51.090;5.884;2022-11-11T02:20:30;11.23;72.92
66873;HTU21D;53781;51.090;5.884;2022-11-11T02:21:05;11.20;72.93
66873;HTU21D;53781;51.090;5.884;2022-11-11T02:21:45;11.20;72.97
66873;HTU21D;53781;51.090;5.884;2022-11-11T02:22:30;11.18;73.07
66873;HTU21D;53781;51.090;5.884;2022-11-11T02:24:08;11.20;72.90
66873;HTU21D;53781;51.090;5.884;2022-11-11T02:24:43;11.20;72.79
66873;HTU21D;53781;51.090;5.884;2022-11-11T02:25:23;11.18;72.84
66873;HTU21D;53781;51.090;5.884;2022-11-11T02:26:01;11.17;72.74
66873;HTU21D;53781;51.090;5.884;2022-11-11T02:26:38;11.16;72.77
66873;HTU21D;53781;51.090;5.884;2022-11-11T02:27:15;11.15;72.74
66873;HTU21D;53781;51.090;5.884;2022-11-11T02:27:51;11.15;72.75
66873;HTU21D;53781;51.090;5.884;2022-11-11T02:28:26;11.15;72.79
66873;HTU21D;53781;51.090;5.884;2022-11-11T02:29:04;11.14;72.68
66873;HTU21D;53781;51.090;5.884;2022-11-11T02:29:43;11.13;72.77
66873;HTU21D;53781;51.090;5.884;2022-11-11T02:30:19;11.10;72.87
66873;HTU21D;53781;51.090;5.884;2022-11-11T02:30:53;11.11;72.92
66873;HTU21D;53781;51.090;5.884;2022-11-11T02:31:27;11.10;72.90
66873;HTU21D;53781;51.090;5.884;2022-11-11T02:32:01;11.08;72.90
66873;HTU21D;53781;51.090;5.884;2022-11-11T02:32:34;11.09;72.95
66873;HTU21D;53781;51.090;5.884;2022-11-11T02:33:08;11.08;73.03
66873;HTU21D;53781;51.090;5.884;2022-11-11T02:33:41;11.07;72.98
66873;HTU21D;53781;51.090;5.884;2022-11-11T02:34:15;11.09;73.01
66873;HTU21D;53781;51.090;5.884;2022-11-11T02:34:49;11.05;73.03
66873;HTU21D;53781;51.090;5.884;2022-11-11T02:35:29;11.07;73.12
66873;HTU21D;53781;51.090;5.884;2022-11-11T02:36:02;11.07;73.10
66873;HTU21D;53781;51.090;5.884;2022-11-11T02:36:39;11.04;73.14
66873;HTU21D;53781;51.090;5.884;2022-11-11T02:37:23;11.04;73.10
66873;HTU21D;53781;51.090;5.884;2022-11-11T02:37:57;11.04;73.16
66873;HTU21D;53781;51.090;5.884;2022-11-11T02:38:30;11.02;73.24
66873;HTU21D;53781;51.090;5.884;2022-11-11T02:39:04;11.03;73.25
66873;HTU21D;53781;51.090;5.884;2022-11-11T02:39:43;11.02;73.22
66873;HTU21D;53781;51.090;5.884;2022-11-11T02:40:29;11.02;73.17
66873;HTU21D;53781;51.090;5.884;2022-11-11T02:41:04;11.03;73.17
66873;HTU21D;53781;51.090;5.884;2022-11-11T02:41:56;11.03;73.22
66873;HTU21D;53781;51.090;5.884;2022-11-11T02:42:30;11.04;73.24
66873;HTU21D;53781;51.090;5.884;2022-11-11T02:43:07;11.04;73.32
66873;HTU21D;53781;51.090;5.884;2022-11-11T02:43:41;11.03;73.33
66873;HTU21D;53781;51.090;5.884;2022-11-11T02:44:14;11.03;73.33
66873;HTU21D;53781;51.090;5.884;2022-11-11T02:44:48;11.04;73.35
66873;HTU21D;53781;51.090;5.884;2022-11-11T02:45:21;11.04;73.22
66873;HTU21D;53781;51.090;5.884;2022-11-11T02:45:55;11.04;73.09
66873;HTU21D;53781;51.090;5.884;2022-11-11T02:46:28;11.03;72.99
66873;HTU21D;53781;51.090;5.884;2022-11-11T02:47:01;11.01;72.99
66873;HTU21D;53781;51.090;5.884;2022-11-11T02:47:34;11.02;72.94
66873;HTU21D;53781;51.090;5.884;2022-11-11T02:48:08;11.01;72.91
66873;HTU21D;53781;51.090;5.884;2022-11-11T02:48:41;11.02;72.97
66873;HTU21D;53781;51.090;5.884;2022-11-11T02:49:15;11.00;72.93
66873;HTU21D;53781;51.090;5.884;2022-11-11T02:49:48;10.99;72.90
66873;HTU21D;53781;51.090;5.884;2022-11-11T02:50:21;10.98;72.85
66873;HTU21D;53781;51.090;5.884;2022-11-11T02:50:56;10.98;72.89
66873;HTU21D;53781;51.090;5.884;2022-11-11T02:51:29;10.97;72.89
66873;HTU21D;53781;51.090;5.884;2022-11-11T02:52:03;10.97;72.90
66873;HTU21D;53781;51.090;5.884;2022-11-11T02:52:37;10.96;72.95
66873;HTU21D;53781;51.090;5.884;2022-11-11T02:53:10;10.95;73.07
66873;HTU21D;53781;51.090;5.884;2022-11-11T02:53:43;10.96;73.03
66873;HTU21D;53781;51.090;5.884;2022-11-11T02:54:17;10.95;73.01
66873;HTU21D;53781;51.090;5.884;2022-11-11T02:54:50;10.98;72.89
66873;HTU21D;53781;51.090;5.884;2022-11-11T02:55:23;10.94;72.90
66873;HTU21D;53781;51.090;5.884;2022-11-11T02:55:57;10.93;72.81
66873;HTU21D;53781;51.090;5.884;2022-11-11T02:56:30;10.93;72.88
66873;HTU21D;53781;51.090;5.884;2022-11-11T02:57:22;10.90;72.89
66873;HTU21D;53781;51.090;5.884;2022-11-11T02:57:56;10.90;72.86
66873;HTU21D;53781;51.090;5.884;2022-11-11T02:58:30;10.88;72.86
66873;HTU21D;53781;51.090;5.884;2022-11-11T02:59:03;10.85;72.80
66873;HTU21D;53781;51.090;5.884;2022-11-11T02:59:39;10.85;72.83
66873;HTU21D;53781;51.090;5.884;2022-11-11T03:00:13;10.85;72.79
66873;HTU21D;53781;51.090;5.884;2022-11-11T03:00:46;10.84;72.83
66873;HTU21D;53781;51.090;5.884;2022-11-11T03:01:20;10.84;72.94
66873;HTU21D;53781;51.090;5.884;2022-11-11T03:01:55;10.83;73.01
66873;HTU21D;53781;51.090;5.884;2022-11-11T03:02:28;10.83;73.06
66873;HTU21D;53781;51.090;5.884;2022-11-11T03:03:02;10.84;73.15
66873;HTU21D;53781;51.090;5.884;2022-11-11T03:03:35;10.84;73.13
66873;HTU21D;53781;51.090;5.884;2022-11-11T03:04:09;10.83;73.09
66873;HTU21D;53781;51.090;5.884;2022-11-11T03:04:42;10.81;73.09
66873;HTU21D;53781;51.090;5.884;2022-11-11T03:05:16;10.81;73.06
66873;HTU21D;53781;51.090;5.884;2022-11-11T03:05:49;10.82;72.95
66873;HTU21D;53781;51.090;5.884;2022-11-11T03:06:22;10.80;72.92
66873;HTU21D;53781;51.090;5.884;2022-11-11T03:06:55;10.79;72.91
66873;HTU21D;53781;51.090;5.884;2022-11-11T03:07:29;10.78;72.84
66873;HTU21D;53781;51.090;5.884;2022-11-11T03:08:02;10.74;72.90
66873;HTU21D;53781;51.090;5.884;2022-11-11T03:08:35;10.74;72.83
66873;HTU21D;53781;51.090;5.884;2022-11-11T03:09:08;10.73;72.82
66873;HTU21D;53781;51.090;5.884;2022-11-11T03:09:41;10.71;72.84
66873;HTU21D;53781;51.090;5.884;2022-11-11T03:10:15;10.71;72.83
66873;HTU21D;53781;51.090;5.884;2022-11-11T03:10:48;10.71;72.76
66873;HTU21D;53781;51.090;5.884;2022-11-11T03:11:22;10.69;72.74
66873;HTU21D;53781;51.090;5.884;2022-11-11T03:12:02;10.68;72.83
66873;HTU21D;53781;51.090;5.884;2022-11-11T03:12:35;10.66;72.88
66873;HTU21D;53781;51.090;5.884;2022-11-11T03:13:08;10.65;72.90
66873;HTU21D;53781;51.090;5.884;2022-11-11T03:13:42;10.65;72.84
66873;HTU21D;53781;51.090;5.884;2022-11-11T03:14:15;10.62;72.88
66873;HTU21D;53781;51.090;5.884;2022-11-11T03:14:48;10.59;72.87
66873;HTU21D;53781;51.090;5.884;2022-11-11T03:15:22;10.59;72.92
66873;HTU21D;53781;51.090;5.884;2022-11-11T03:15:55;10.59;72.84
66873;HTU21D;53781;51.090;5.884;2022-11-11T03:16:31;10.57;72.88
66873;HTU21D;53781;51.090;5.884;2022-11-11T03:17:23;10.56;72.99
66873;HTU21D;53781;51.090;5.884;2022-11-11T03:18:12;10.56;72.97
66873;HTU21D;53781;51.090;5.884;2022-11-11T03:18:45;10.54;73.00
66873;HTU21D;53781;51.090;5.884;2022-11-11T03:19:19;10.55;73.03
66873;HTU21D;53781;51.090;5.884;2022-11-11T03:19:53;10.55;73.10
66873;HTU21D;53781;51.090;5.884;2022-11-11T03:20:46;10.52;73.12
66873;HTU21D;53781;51.090;5.884;2022-11-11T03:21:37;10.51;73.08
66873;HTU21D;53781;51.090;5.884;2022-11-11T03:22:11;10.52;73.07
66873;HTU21D;53781;51.090;5.884;2022-11-11T03:23:02;10.52;73.13
66873;HTU21D;53781;51.090;5.884;2022-11-11T03:23:36;10.49;73.17
66873;HTU21D;53781;51.090;5.884;2022-11-11T03:24:10;10.50;73.01
66873;HTU21D;53781;51.090;5.884;2022-11-11T03:24:44;10.49;73.01
66873;HTU21D;53781;51.090;5.884;2022-11-11T03:25:41;10.46;73.14
66873;HTU21D;53781;51.090;5.884;2022-11-11T03:26:14;10.48;73.15
66873;HTU21D;53781;51.090;5.884;2022-11-11T03:26:48;10.46;73.08
66873;HTU21D;53781;51.090;5.884;2022-11-11T03:27:21;10.44;73.06
66873;HTU21D;53781;51.090;5.884;2022-11-11T03:27:54;10.46;73.11
66873;HTU21D;53781;51.090;5.884;2022-11-11T03:28:28;10.44;73.03
66873;HTU21D;53781;51.090;5.884;2022-11-11T03:29:02;10.44;73.12
66873;HTU21D;53781;51.090;5.884;2022-11-11T03:29:36;10.42;73.14
66873;HTU21D;53781;51.090;5.884;2022-11-11T03:30:12;10.45;73.28
66873;HTU21D;53781;51.090;5.884;2022-11-11T03:30:48;10.44;73.25
66873;HTU21D;53781;51.090;5.884;2022-11-11T03:31:21;10.44;73.25
66873;HTU21D;53781;51.090;5.884;2022-11-11T03:31:55;10.44;73.22
66873;HTU21D;53781;51.090;5.884;2022-11-11T03:32:28;10.44;73.15
66873;HTU21D;53781;51.090;5.884;2022-11-11T03:33:02;10.43;73.11
66873;HTU21D;53781;51.090;5.884;2022-11-11T03:33:35;10.42;73.10
66873;HTU21D;53781;51.090;5.884;2022-11-11T03:34:09;10.43;73.03
66873;HTU21D;53781;51.090;5.884;2022-11-11T03:34:51;10.42;73.09
66873;HTU21D;53781;51.090;5.884;2022-11-11T03:35:24;10.41;73.00
66873;HTU21D;53781;51.090;5.884;2022-11-11T03:35:58;10.40;73.09
66873;HTU21D;53781;51.090;5.884;2022-11-11T03:36:31;10.40;73.18
66873;HTU21D;53781;51.090;5.884;2022-11-11T03:37:24;10.40;73.13
66873;HTU21D;53781;51.090;5.884;2022-11-11T03:38:16;10.40;73.23
66873;HTU21D;53781;51.090;5.884;2022-11-11T03:38:58;10.41;73.25
66873;HTU21D;53781;51.090;5.884;2022-11-11T03:39:31;10.42;73.42
66873;HTU21D;53781;51.090;5.884;2022-11-11T03:40:05;10.40;73.48
66873;HTU21D;53781;51.090;5.884;2022-11-11T03:40:39;10.41;73.57
66873;HTU21D;53781;51.090;5.884;2022-11-11T03:41:12;10.43;73.59
66873;HTU21D;53781;51.090;5.884;2022-11-11T03:41:45;10.42;73.68
66873;HTU21D;53781;51.090;5.884;2022-11-11T03:42:19;10.44;73.69
66873;HTU21D;53781;51.090;5.884;2022-11-11T03:42:52;10.45;73.77
66873;HTU21D;53781;51.090;5.884;2022-11-11T03:43:28;10.46;73.78
66873;HTU21D;53781;51.090;5.884;2022-11-11T03:44:02;10.48;73.81
66873;HTU21D;53781;51.090;5.884;2022-11-11T03:44:35;10.48;73.89
66873;HTU21D;53781;51.090;5.884;2022-11-11T03:45:09;10.48;73.89
66873;HTU21D;53781;51.090;5.884;2022-11-11T03:45:43;10.51;73.91
66873;HTU21D;53781;51.090;5.884;2022-11-11T03:46:17;10.51;73.80
66873;HTU21D;53781;51.090;5.884;2022-11-11T03:46:50;10.50;73.78
66873;HTU21D;53781;51.090;5.884;2022-11-11T03:47:23;10.50;73.78
66873;HTU21D;53781;51.090;5.884;2022-11-11T03:47:57;10.48;73.81
66873;HTU21D;53781;51.090;5.884;2022-11-11T03:48:34;10.50;73.78
66873;HTU21D;53781;51.090;5.884;2022-11-11T03:49:07;10.48;73.81
66873;HTU21D;53781;51.090;5.884;2022-11-11T03:49:41;10.49;73.76
66873;HTU21D;53781;51.090;5.884;2022-11-11T03:50:15;10.51;73.70
66873;HTU21D;53781;51.090;5.884;2022-11-11T03:50:49;10.51;73.75
66873;HTU21D;53781;51.090;5.884;2022-11-11T03:51:22;10.50;73.64
66873;HTU21D;53781;51.090;5.884;2022-11-11T03:51:56;10.51;73.61
66873;HTU21D;53781;51.090;5.884;2022-11-11T03:52:29;10.50;73.48
66873;HTU21D;53781;51.090;5.884;2022-11-11T03:53:03;10.48;73.49
66873;HTU21D;53781;51.090;5.884;2022-11-11T03:53:37;10.49;73.45